MSC Marina — HPSB — position and weather

sailwx.info

Track history (hours):
 
Tides and Currents Weather Stations Pressure Air Temp Water Temp Dewpoint Dewpoint Depression Visibility Wind Speed Wind Dir Waves Ship Positions

MSC Marina

Last reported at 2017-Dec-09 14:43 UTC. Time now 2017-Dec-12 14:23 UTC.
Position S 24°15' W 046°11'.

Length 304 m; draft 13.1 m.

Type: Ship (hazmat cat B). MMSI: 354972000.

Date/timePositionNaut miles runAvg speedWind from/ knotsBaromVisibWave heightAir tempDewpointWater temp
2017-Dec-09 14:43S 24°15' W 046°11'211.4
2017-Dec-09 14:30S 24°15' W 046°13'611.1
2017-Dec-09 14:00S 24°15' W 046°19'510.8
2017-Dec-09 13:30S 24°10' W 046°22'510.4
2017-Dec-09 13:00S 24°04' W 046°22'5 9.9
2017-Dec-09 12:30S 23°60' W 046°20'3 0.1
2017-Dec-08 08:10S 23°57' W 046°19'1 8.3
2017-Dec-08 08:00S 23°58' W 046°18'3 6.1
2017-Dec-08 07:30S 24°00' W 046°20'4 7.8
2017-Dec-08 07:00S 24°04' W 046°22'4 8.2
2017-Dec-08 06:30S 24°07' W 046°24'4 7.5
2017-Dec-08 06:00S 24°09' W 046°28'0 0.8
2017-Dec-08 05:30S 24°09' W 046°28'0 0.9
2017-Dec-08 05:00S 24°09' W 046°27'0 0.9
2017-Dec-08 04:30S 24°10' W 046°27'0 1.0
2017-Dec-08 04:00S 24°10' W 046°26'3 5.8
2017-Dec-08 03:30S 24°13' W 046°27'510.1
2017-Dec-08 03:00S 24°18' W 046°28'510.7
2017-Dec-08 02:30S 24°23' W 046°30'510.6
2017-Dec-08 02:00S 24°27' W 046°32'510.5
2017-Dec-08 01:30S 24°32' W 046°35'510.5
2017-Dec-08 01:00S 24°36' W 046°39'610.5
2017-Dec-08 00:27S 24°41' W 046°43'610.5
2017-Dec-07 23:53S 24°46' W 046°47'410.4
2017-Dec-07 23:30S 24°49' W 046°49'  
Track history (hours):
 
Tides and Currents Weather Stations Pressure Air Temp Water Temp Dewpoint Dewpoint Depression Visibility Wind Speed Wind Dir Waves Ship Positions

MSC Marina

Last reported at 2017-Dec-09 14:43 UTC. Time now 2017-Dec-12 14:23 UTC.
Position S 24°15' W 046°11'.

Length 304 m; draft 13.1 m.

Type: Ship (hazmat cat B). MMSI: 354972000.

Date/timePositionNaut miles runAvg speedWind from/ knotsBaromVisibWave heightAir tempDewpointWater temp
2017-Dec-09 14:43S 24°15' W 046°11'211.4
2017-Dec-09 14:30S 24°15' W 046°13'611.1
2017-Dec-09 14:00S 24°15' W 046°19'510.8
2017-Dec-09 13:30S 24°10' W 046°22'510.4
2017-Dec-09 13:00S 24°04' W 046°22'5 9.9
2017-Dec-09 12:30S 23°60' W 046°20'3 0.1
2017-Dec-08 08:10S 23°57' W 046°19'1 8.3
2017-Dec-08 08:00S 23°58' W 046°18'3 6.1
2017-Dec-08 07:30S 24°00' W 046°20'4 7.8
2017-Dec-08 07:00S 24°04' W 046°22'4 8.2
2017-Dec-08 06:30S 24°07' W 046°24'4 7.5
2017-Dec-08 06:00S 24°09' W 046°28'0 0.8
2017-Dec-08 05:30S 24°09' W 046°28'0 0.9
2017-Dec-08 05:00S 24°09' W 046°27'0 0.9
2017-Dec-08 04:30S 24°10' W 046°27'0 1.0
2017-Dec-08 04:00S 24°10' W 046°26'3 5.8
2017-Dec-08 03:30S 24°13' W 046°27'510.1
2017-Dec-08 03:00S 24°18' W 046°28'510.7
2017-Dec-08 02:30S 24°23' W 046°30'510.6
2017-Dec-08 02:00S 24°27' W 046°32'510.5
2017-Dec-08 01:30S 24°32' W 046°35'510.5
2017-Dec-08 01:00S 24°36' W 046°39'610.5
2017-Dec-08 00:27S 24°41' W 046°43'610.5
2017-Dec-07 23:53S 24°46' W 046°47'410.4
2017-Dec-07 23:30S 24°49' W 046°49'  

Dump ship's entire track history